sensor_id;sensor_type;location;lat;lon;timestamp;temperature;humidity
19033;DHT22;9649;51.042;13.804;2024-02-04T00:01:35;10.00;1.00
19033;DHT22;9649;51.042;13.804;2024-02-04T00:06:38;10.00;4.00
19033;DHT22;9649;51.042;13.804;2024-02-04T00:11:41;10.00;1.00
19033;DHT22;9649;51.042;13.804;2024-02-04T00:16:46;10.00;1.00
19033;DHT22;9649;51.042;13.804;2024-02-04T00:21:48;10.00;1.00
19033;DHT22;9649;51.042;13.804;2024-02-04T00:26:51;10.00;1.00
19033;DHT22;9649;51.042;13.804;2024-02-04T00:31:55;9.90;1.00
19033;DHT22;9649;51.042;13.804;2024-02-04T00:36:58;9.80;1.00
19033;DHT22;9649;51.042;13.804;2024-02-04T00:42:01;9.70;99.90
19033;DHT22;9649;51.042;13.804;2024-02-04T00:47:06;9.80;1.00
19033;DHT22;9649;51.042;13.804;2024-02-04T00:52:08;9.70;1.00
19033;DHT22;9649;51.042;13.804;2024-02-04T00:57:11;9.70;1.00
19033;DHT22;9649;51.042;13.804;2024-02-04T01:02:15;9.70;1.00
19033;DHT22;9649;51.042;13.804;2024-02-04T01:07:18;9.60;1.00
19033;DHT22;9649;51.042;13.804;2024-02-04T01:12:21;9.40;41.40
19033;DHT22;9649;51.042;13.804;2024-02-04T01:17:25;9.20;1.00
19033;DHT22;9649;51.042;13.804;2024-02-04T01:22:28;9.20;1.00
19033;DHT22;9649;51.042;13.804;2024-02-04T01:27:31;9.30;1.00
19033;DHT22;9649;51.042;13.804;2024-02-04T01:32:35;9.40;99.90
19033;DHT22;9649;51.042;13.804;2024-02-04T01:37:38;9.50;99.90
19033;DHT22;9649;51.042;13.804;2024-02-04T01:42:41;9.50;1.00
19033;DHT22;9649;51.042;13.804;2024-02-04T01:47:46;9.60;1.00
19033;DHT22;9649;51.042;13.804;2024-02-04T01:52:50;9.60;99.90
19033;DHT22;9649;51.042;13.804;2024-02-04T01:57:54;9.50;1.00
19033;DHT22;9649;51.042;13.804;2024-02-04T02:02:59;9.20;99.90
19033;DHT22;9649;51.042;13.804;2024-02-04T02:08:02;9.10;1.00
19033;DHT22;9649;51.042;13.804;2024-02-04T02:13:09;9.00;1.00
19033;DHT22;9649;51.042;13.804;2024-02-04T02:18:17;9.20;1.00
19033;DHT22;9649;51.042;13.804;2024-02-04T02:23:22;9.30;99.90
19033;DHT22;9649;51.042;13.804;2024-02-04T02:28:26;9.30;99.90
19033;DHT22;9649;51.042;13.804;2024-02-04T02:33:29;9.40;99.90
19033;DHT22;9649;51.042;13.804;2024-02-04T02:38:37;9.40;1.00
19033;DHT22;9649;51.042;13.804;2024-02-04T02:43:44;9.30;1.00
19033;DHT22;9649;51.042;13.804;2024-02-04T02:48:49;9.30;99.90
19033;DHT22;9649;51.042;13.804;2024-02-04T02:53:52;9.30;99.90
19033;DHT22;9649;51.042;13.804;2024-02-04T02:58:56;9.30;1.00
19033;DHT22;9649;51.042;13.804;2024-02-04T03:03:59;9.30;1.00
19033;DHT22;9649;51.042;13.804;2024-02-04T03:09:02;9.40;1.00
19033;DHT22;9649;51.042;13.804;2024-02-04T03:14:06;9.50;1.00
19033;DHT22;9649;51.042;13.804;2024-02-04T03:19:09;9.50;26.70
19033;DHT22;9649;51.042;13.804;2024-02-04T03:24:12;9.70;1.00
19033;DHT22;9649;51.042;13.804;2024-02-04T03:29:16;9.70;1.00
19033;DHT22;9649;51.042;13.804;2024-02-04T03:34:19;9.70;22.90
19033;DHT22;9649;51.042;13.804;2024-02-04T03:39:21;9.60;8.70
19033;DHT22;9649;51.042;13.804;2024-02-04T03:44:25;9.50;1.00
19033;DHT22;9649;51.042;13.804;2024-02-04T03:49:28;9.40;85.70
19033;DHT22;9649;51.042;13.804;2024-02-04T03:54:31;9.40;1.00
19033;DHT22;9649;51.042;13.804;2024-02-04T03:59:36;9.30;1.00
19033;DHT22;9649;51.042;13.804;2024-02-04T04:04:39;9.10;99.90
19033;DHT22;9649;51.042;13.804;2024-02-04T04:09:43;9.10;1.00
19033;DHT22;9649;51.042;13.804;2024-02-04T04:14:47;9.30;99.90
19033;DHT22;9649;51.042;13.804;2024-02-04T04:19:50;9.30;99.90
19033;DHT22;9649;51.042;13.804;2024-02-04T04:24:53;9.30;1.00
19033;DHT22;9649;51.042;13.804;2024-02-04T04:29:57;9.10;1.00
19033;DHT22;9649;51.042;13.804;2024-02-04T04:35:00;9.30;80.20
19033;DHT22;9649;51.042;13.804;2024-02-04T04:40:03;9.30;1.00
19033;DHT22;9649;51.042;13.804;2024-02-04T04:45:08;9.30;1.00
19033;DHT22;9649;51.042;13.804;2024-02-04T04:50:12;9.30;1.00
19033;DHT22;9649;51.042;13.804;2024-02-04T04:55:15;9.30;99.90
19033;DHT22;9649;51.042;13.804;2024-02-04T05:00:20;9.40;1.00
19033;DHT22;9649;51.042;13.804;2024-02-04T05:05:22;9.60;99.90
19033;DHT22;9649;51.042;13.804;2024-02-04T05:10:25;9.60;12.70
19033;DHT22;9649;51.042;13.804;2024-02-04T05:15:29;9.60;99.90
19033;DHT22;9649;51.042;13.804;2024-02-04T05:20:32;9.40;1.00
19033;DHT22;9649;51.042;13.804;2024-02-04T05:25:36;9.50;1.00
19033;DHT22;9649;51.042;13.804;2024-02-04T05:30:40;9.70;1.00
19033;DHT22;9649;51.042;13.804;2024-02-04T05:35:43;9.70;99.90
19033;DHT22;9649;51.042;13.804;2024-02-04T05:40:46;9.80;99.90
19033;DHT22;9649;51.042;13.804;2024-02-04T05:45:50;9.80;99.90
19033;DHT22;9649;51.042;13.804;2024-02-04T05:50:52;9.70;1.00
19033;DHT22;9649;51.042;13.804;2024-02-04T05:55:55;9.60;1.00
19033;DHT22;9649;51.042;13.804;2024-02-04T06:00:59;9.50;99.90
19033;DHT22;9649;51.042;13.804;2024-02-04T06:06:02;9.40;1.00
19033;DHT22;9649;51.042;13.804;2024-02-04T06:11:05;9.50;99.90
19033;DHT22;9649;51.042;13.804;2024-02-04T06:16:12;9.60;1.00
19033;DHT22;9649;51.042;13.804;2024-02-04T06:21:15;9.70;1.00
19033;DHT22;9649;51.042;13.804;2024-02-04T06:26:18;9.70;99.90
19033;DHT22;9649;51.042;13.804;2024-02-04T06:31:22;9.70;1.00
19033;DHT22;9649;51.042;13.804;2024-02-04T06:36:25;9.60;1.00
19033;DHT22;9649;51.042;13.804;2024-02-04T06:41:28;9.50;1.00
19033;DHT22;9649;51.042;13.804;2024-02-04T06:46:32;9.40;99.90
19033;DHT22;9649;51.042;13.804;2024-02-04T06:51:35;9.10;99.90
19033;DHT22;9649;51.042;13.804;2024-02-04T06:56:38;9.00;99.90
19033;DHT22;9649;51.042;13.804;2024-02-04T07:01:42;9.10;99.90
19033;DHT22;9649;51.042;13.804;2024-02-04T07:06:45;9.20;99.90
19033;DHT22;9649;51.042;13.804;2024-02-04T07:11:48;9.30;99.90
19033;DHT22;9649;51.042;13.804;2024-02-04T07:16:52;9.40;78.10
19033;DHT22;9649;51.042;13.804;2024-02-04T07:21:54;9.60;1.00
19033;DHT22;9649;51.042;13.804;2024-02-04T07:26:58;9.70;1.00
19033;DHT22;9649;51.042;13.804;2024-02-04T07:32:02;9.70;1.00
19033;DHT22;9649;51.042;13.804;2024-02-04T07:37:05;9.80;99.90
19033;DHT22;9649;51.042;13.804;2024-02-04T07:42:08;9.70;99.90
19033;DHT22;9649;51.042;13.804;2024-02-04T07:47:12;9.70;99.90
19033;DHT22;9649;51.042;13.804;2024-02-04T07:52:15;9.90;1.00
19033;DHT22;9649;51.042;13.804;2024-02-04T07:57:18;10.00;1.00
19033;DHT22;9649;51.042;13.804;2024-02-04T08:02:23;10.20;1.00
19033;DHT22;9649;51.042;13.804;2024-02-04T08:07:25;10.50;99.90
19033;DHT22;9649;51.042;13.804;2024-02-04T08:12:28;10.90;1.00
19033;DHT22;9649;51.042;13.804;2024-02-04T08:17:32;11.80;1.00
19033;DHT22;9649;51.042;13.804;2024-02-04T08:22:36;13.00;99.90
19033;DHT22;9649;51.042;13.804;2024-02-04T08:27:39;13.20;1.00
19033;DHT22;9649;51.042;13.804;2024-02-04T08:32:50;12.80;1.00
19033;DHT22;9649;51.042;13.804;2024-02-04T08:37:53;12.10;1.00
19033;DHT22;9649;51.042;13.804;2024-02-04T08:42:56;12.00;1.00
19033;DHT22;9649;51.042;13.804;2024-02-04T08:48:00;12.20;99.90
19033;DHT22;9649;51.042;13.804;2024-02-04T08:53:04;11.90;1.00
19033;DHT22;9649;51.042;13.804;2024-02-04T08:58:07;11.70;1.00
19033;DHT22;9649;51.042;13.804;2024-02-04T09:03:12;11.80;16.20
19033;DHT22;9649;51.042;13.804;2024-02-04T09:08:15;12.10;1.00
19033;DHT22;9649;51.042;13.804;2024-02-04T09:13:18;12.10;1.00
19033;DHT22;9649;51.042;13.804;2024-02-04T09:18:22;11.90;1.00
19033;DHT22;9649;51.042;13.804;2024-02-04T09:23:25;11.40;1.00
19033;DHT22;9649;51.042;13.804;2024-02-04T09:28:28;11.00;99.90
19033;DHT22;9649;51.042;13.804;2024-02-04T09:33:33;10.70;1.00
19033;DHT22;9649;51.042;13.804;2024-02-04T09:38:39;10.60;1.00
19033;DHT22;9649;51.042;13.804;2024-02-04T09:43:44;10.50;99.90
19033;DHT22;9649;51.042;13.804;2024-02-04T09:48:51;10.50;1.00
19033;DHT22;9649;51.042;13.804;2024-02-04T09:54:00;10.50;1.00
19033;DHT22;9649;51.042;13.804;2024-02-04T09:59:04;10.50;1.00
19033;DHT22;9649;51.042;13.804;2024-02-04T10:04:11;10.60;99.90
19033;DHT22;9649;51.042;13.804;2024-02-04T10:09:14;10.80;99.90
19033;DHT22;9649;51.042;13.804;2024-02-04T10:14:17;10.90;1.00
19033;DHT22;9649;51.042;13.804;2024-02-04T10:19:25;10.90;1.00
19033;DHT22;9649;51.042;13.804;2024-02-04T10:24:29;10.80;1.00
19033;DHT22;9649;51.042;13.804;2024-02-04T10:29:32;10.70;99.90
19033;DHT22;9649;51.042;13.804;2024-02-04T10:34:38;10.50;1.00
19033;DHT22;9649;51.042;13.804;2024-02-04T10:39:41;10.40;1.00
19033;DHT22;9649;51.042;13.804;2024-02-04T10:44:45;10.50;1.00
19033;DHT22;9649;51.042;13.804;2024-02-04T10:49:52;10.50;1.00
19033;DHT22;9649;51.042;13.804;2024-02-04T10:55:11;10.40;1.00
19033;DHT22;9649;51.042;13.804;2024-02-04T11:00:30;10.30;38.40
19033;DHT22;9649;51.042;13.804;2024-02-04T11:11:22;10.50;34.10
19033;DHT22;9649;51.042;13.804;2024-02-04T11:23:41;10.90;1.00
19033;DHT22;9649;51.042;13.804;2024-02-04T11:29:29;11.20;99.90
19033;DHT22;9649;51.042;13.804;2024-02-04T11:34:44;11.20;99.90
19033;DHT22;9649;51.042;13.804;2024-02-04T11:39:57;11.20;1.00
19033;DHT22;9649;51.042;13.804;2024-02-04T11:45:18;11.20;1.00
19033;DHT22;9649;51.042;13.804;2024-02-04T11:56:26;11.30;1.00
19033;DHT22;9649;51.042;13.804;2024-02-04T12:02:09;11.30;1.00
19033;DHT22;9649;51.042;13.804;2024-02-04T12:07:13;11.10;1.00
19033;DHT22;9649;51.042;13.804;2024-02-04T12:12:17;10.90;1.00
19033;DHT22;9649;51.042;13.804;2024-02-04T12:17:21;10.90;1.00
19033;DHT22;9649;51.042;13.804;2024-02-04T12:22:32;11.00;1.00
19033;DHT22;9649;51.042;13.804;2024-02-04T12:27:36;11.20;1.00
19033;DHT22;9649;51.042;13.804;2024-02-04T12:32:40;11.40;99.90
19033;DHT22;9649;51.042;13.804;2024-02-04T12:37:52;11.60;1.00
19033;DHT22;9649;51.042;13.804;2024-02-04T12:42:57;11.80;99.90
19033;DHT22;9649;51.042;13.804;2024-02-04T12:48:08;11.90;99.90
19033;DHT22;9649;51.042;13.804;2024-02-04T12:53:11;12.10;1.00
19033;DHT22;9649;51.042;13.804;2024-02-04T12:58:15;12.20;1.00
19033;DHT22;9649;51.042;13.804;2024-02-04T13:03:21;12.50;99.90
19033;DHT22;9649;51.042;13.804;2024-02-04T13:08:24;12.30;99.90
19033;DHT22;9649;51.042;13.804;2024-02-04T13:13:30;12.20;1.00
19033;DHT22;9649;51.042;13.804;2024-02-04T13:18:34;12.30;99.90
19033;DHT22;9649;51.042;13.804;2024-02-04T13:23:37;12.50;1.00
19033;DHT22;9649;51.042;13.804;2024-02-04T13:28:40;12.50;1.00
19033;DHT22;9649;51.042;13.804;2024-02-04T13:33:45;12.40;99.90
19033;DHT22;9649;51.042;13.804;2024-02-04T13:38:48;12.20;1.00
19033;DHT22;9649;51.042;13.804;2024-02-04T13:43:51;11.90;1.00
19033;DHT22;9649;51.042;13.804;2024-02-04T13:48:55;11.60;1.00
19033;DHT22;9649;51.042;13.804;2024-02-04T13:53:58;11.70;99.90
19033;DHT22;9649;51.042;13.804;2024-02-04T13:59:01;11.90;67.50
19033;DHT22;9649;51.042;13.804;2024-02-04T14:04:05;11.90;1.00
19033;DHT22;9649;51.042;13.804;2024-02-04T14:09:08;11.80;1.00
19033;DHT22;9649;51.042;13.804;2024-02-04T14:14:14;11.60;99.90
19033;DHT22;9649;51.042;13.804;2024-02-04T14:19:18;11.30;1.00
19033;DHT22;9649;51.042;13.804;2024-02-04T14:24:21;11.00;99.90
19033;DHT22;9649;51.042;13.804;2024-02-04T14:29:24;10.80;1.00
19033;DHT22;9649;51.042;13.804;2024-02-04T14:34:28;10.70;1.00
19033;DHT22;9649;51.042;13.804;2024-02-04T14:39:32;10.70;99.90
19033;DHT22;9649;51.042;13.804;2024-02-04T14:44:35;10.80;1.00
19033;DHT22;9649;51.042;13.804;2024-02-04T14:49:39;10.90;1.00
19033;DHT22;9649;51.042;13.804;2024-02-04T14:54:42;10.90;26.40
19033;DHT22;9649;51.042;13.804;2024-02-04T14:59:45;10.90;1.00
19033;DHT22;9649;51.042;13.804;2024-02-04T15:04:49;10.90;1.00
19033;DHT22;9649;51.042;13.804;2024-02-04T15:09:52;10.90;1.00
19033;DHT22;9649;51.042;13.804;2024-02-04T15:14:55;10.90;99.90
19033;DHT22;9649;51.042;13.804;2024-02-04T15:20:00;10.80;1.00
19033;DHT22;9649;51.042;13.804;2024-02-04T15:25:05;10.80;1.00
19033;DHT22;9649;51.042;13.804;2024-02-04T15:30:09;10.70;1.00
19033;DHT22;9649;51.042;13.804;2024-02-04T15:35:19;10.60;1.00
19033;DHT22;9649;51.042;13.804;2024-02-04T15:40:24;10.50;99.90
19033;DHT22;9649;51.042;13.804;2024-02-04T15:45:27;10.40;99.90
19033;DHT22;9649;51.042;13.804;2024-02-04T15:50:36;10.40;99.90
19033;DHT22;9649;51.042;13.804;2024-02-04T15:55:48;10.20;1.00
19033;DHT22;9649;51.042;13.804;2024-02-04T16:00:51;10.10;1.00
19033;DHT22;9649;51.042;13.804;2024-02-04T16:05:56;10.10;1.00
19033;DHT22;9649;51.042;13.804;2024-02-04T16:11:04;10.10;1.00
19033;DHT22;9649;51.042;13.804;2024-02-04T16:16:08;10.10;1.00
19033;DHT22;9649;51.042;13.804;2024-02-04T16:21:16;10.10;1.00
19033;DHT22;9649;51.042;13.804;2024-02-04T16:26:18;10.10;1.00
19033;DHT22;9649;51.042;13.804;2024-02-04T16:31:23;10.00;1.00
19033;DHT22;9649;51.042;13.804;2024-02-04T16:36:27;10.00;1.00
19033;DHT22;9649;51.042;13.804;2024-02-04T16:41:31;10.00;1.00
19033;DHT22;9649;51.042;13.804;2024-02-04T16:46:33;9.90;1.00
19033;DHT22;9649;51.042;13.804;2024-02-04T16:51:38;9.90;1.00
19033;DHT22;9649;51.042;13.804;2024-02-04T16:56:41;9.70;1.00
19033;DHT22;9649;51.042;13.804;2024-02-04T17:01:50;9.50;1.00
19033;DHT22;9649;51.042;13.804;2024-02-04T17:07:21;9.30;99.90
19033;DHT22;9649;51.042;13.804;2024-02-04T17:13:10;9.20;1.00
19033;DHT22;9649;51.042;13.804;2024-02-04T17:18:35;9.10;77.50
19033;DHT22;9649;51.042;13.804;2024-02-04T17:24:18;9.00;99.90
19033;DHT22;9649;51.042;13.804;2024-02-04T17:37:09;8.80;99.90
19033;DHT22;9649;51.042;13.804;2024-02-04T17:41:38;8.80;99.90
19033;DHT22;9649;51.042;13.804;2024-02-04T17:47:33;8.70;99.90
19033;DHT22;9649;51.042;13.804;2024-02-04T18:12:24;8.70;99.90
19033;DHT22;9649;51.042;13.804;2024-02-04T18:18:00;8.70;99.90
19033;DHT22;9649;51.042;13.804;2024-02-04T18:23:25;8.80;99.90
19033;DHT22;9649;51.042;13.804;2024-02-04T18:29:09;8.70;99.90
19033;DHT22;9649;51.042;13.804;2024-02-04T18:34:26;8.70;99.90
19033;DHT22;9649;51.042;13.804;2024-02-04T18:39:42;8.70;99.90
19033;DHT22;9649;51.042;13.804;2024-02-04T18:45:09;8.70;99.90
19033;DHT22;9649;51.042;13.804;2024-02-04T18:50:24;8.60;99.90
19033;DHT22;9649;51.042;13.804;2024-02-04T18:56:21;8.60;99.90
19033;DHT22;9649;51.042;13.804;2024-02-04T19:02:48;8.50;99.90
19033;DHT22;9649;51.042;13.804;2024-02-04T19:09:04;8.50;99.90
19033;DHT22;9649;51.042;13.804;2024-02-04T19:14:56;8.50;99.90
19033;DHT22;9649;51.042;13.804;2024-02-04T19:20:41;8.50;99.90
19033;DHT22;9649;51.042;13.804;2024-02-04T19:25:50;8.60;99.90
19033;DHT22;9649;51.042;13.804;2024-02-04T19:31:02;8.50;99.90
19033;DHT22;9649;51.042;13.804;2024-02-04T19:36:24;8.40;99.90
19033;DHT22;9649;51.042;13.804;2024-02-04T19:41:44;8.50;99.90
19033;DHT22;9649;51.042;13.804;2024-02-04T19:47:05;8.50;99.90
19033;DHT22;9649;51.042;13.804;2024-02-04T19:52:23;8.50;99.90
19033;DHT22;9649;51.042;13.804;2024-02-04T19:57:53;8.50;99.90
19033;DHT22;9649;51.042;13.804;2024-02-04T20:03:41;8.50;99.90
19033;DHT22;9649;51.042;13.804;2024-02-04T20:14:52;8.60;99.90
19033;DHT22;9649;51.042;13.804;2024-02-04T20:25:51;8.50;99.90
19033;DHT22;9649;51.042;13.804;2024-02-04T20:31:18;8.40;99.90
19033;DHT22;9649;51.042;13.804;2024-02-04T20:36:48;8.40;99.90
19033;DHT22;9649;51.042;13.804;2024-02-04T20:42:37;8.40;99.90
19033;DHT22;9649;51.042;13.804;2024-02-04T21:19:55;8.10;99.90
19033;DHT22;9649;51.042;13.804;2024-02-04T21:26:10;8.10;99.90
19033;DHT22;9649;51.042;13.804;2024-02-04T21:31:59;8.10;99.90
19033;DHT22;9649;51.042;13.804;2024-02-04T21:37:55;8.10;99.90
19033;DHT22;9649;51.042;13.804;2024-02-04T21:43:52;8.20;99.90
19033;DHT22;9649;51.042;13.804;2024-02-04T21:50:07;8.20;99.90
19033;DHT22;9649;51.042;13.804;2024-02-04T21:55:41;8.30;99.90
19033;DHT22;9649;51.042;13.804;2024-02-04T22:01:18;8.30;99.90
19033;DHT22;9649;51.042;13.804;2024-02-04T22:07:22;8.40;99.90
19033;DHT22;9649;51.042;13.804;2024-02-04T22:12:45;8.40;99.90
19033;DHT22;9649;51.042;13.804;2024-02-04T22:18:15;8.50;99.90
19033;DHT22;9649;51.042;13.804;2024-02-04T22:23:49;8.80;99.90
19033;DHT22;9649;51.042;13.804;2024-02-04T22:29:24;9.20;99.90
19033;DHT22;9649;51.042;13.804;2024-02-04T22:34:43;9.40;99.90
19033;DHT22;9649;51.042;13.804;2024-02-04T22:40:14;9.60;99.90
19033;DHT22;9649;51.042;13.804;2024-02-04T22:51:33;9.70;99.90
19033;DHT22;9649;51.042;13.804;2024-02-04T22:56:52;9.90;99.90
19033;DHT22;9649;51.042;13.804;2024-02-04T23:02:05;9.90;99.90
19033;DHT22;9649;51.042;13.804;2024-02-04T23:13:53;9.90;99.90
19033;DHT22;9649;51.042;13.804;2024-02-04T23:25:29;9.90;99.90
19033;DHT22;9649;51.042;13.804;2024-02-04T23:30:45;9.80;99.90
19033;DHT22;9649;51.042;13.804;2024-02-04T23:41:27;10.10;99.90
19033;DHT22;9649;51.042;13.804;2024-02-04T23:46:46;10.00;99.90
19033;DHT22;9649;51.042;13.804;2024-02-04T23:52:05;10.10;99.90
19033;DHT22;9649;51.042;13.804;2024-02-04T23:57:42;10.10;99.90
